Observation data for Haskell on 08/16/2019      Previous  Date       Current Mesonet Observations  Soil Data  Daily Summary Page  Observations in Plain Language
KHA1 160500Z 14006KT 29/17 A2996 RMK A01 T02900170  RH  051%=      5-min Rain = 0
KHA1 160505Z 14006KT 29/17 A2996 RMK A01 T02880171  RH  052%=      5-min Rain = 0
KHA1 160510Z 15006KT 29/17 A2996 RMK A01 T02870172  RH  052%=      5-min Rain = 0
KHA1 160515Z 15006KT 29/17 A2996 RMK A01 T02860172  RH  053%=      5-min Rain = 0
KHA1 160520Z 15006KT 28/17 A2996 RMK A01 T02840172  RH  053%=      5-min Rain = 0
KHA1 160525Z 15007KT 28/17 A2996 RMK A01 T02840173  RH  054%=      5-min Rain = 0
KHA1 160530Z 16007KT 28/17 A2996 RMK A01 T02840173  RH  054%=      5-min Rain = 0
KHA1 160535Z 15007KT 28/17 A2996 RMK A01 T02840174  RH  054%=      5-min Rain = 0
KHA1 160540Z 16007KT 28/18 A2996 RMK A01 T02840175  RH  054%=      5-min Rain = 0
KHA1 160545Z 16006KT 28/18 A2996 RMK A01 T02830175  RH  055%=      5-min Rain = 0
KHA1 160550Z 16007KT 28/18 A2996 RMK A01 T02840175  RH  054%=      5-min Rain = 0
KHA1 160555Z 16007KT 28/18 A2995 RMK A01 T02830175  RH  055%=      5-min Rain = 0
KHA1 160600Z 17007KT 28/18 A2995 RMK A01 T02820175  RH  055%=      5-min Rain = 0
KHA1 160605Z 17007KT 28/18 A2995 RMK A01 T02810175  RH  055%=      5-min Rain = 0
KHA1 160610Z 17008KT 28/18 A2995 RMK A01 T02800175  RH  056%=      5-min Rain = 0
KHA1 160615Z 16009G17KT 28/18 A2995 RMK A01 T02820175  RH  055%=      5-min Rain = 0
KHA1 160620Z 16008KT 28/18 A2995 RMK A01 T02820177  RH  056%=      5-min Rain = 0
KHA1 160625Z 17008KT 28/18 A2995 RMK A01 T02830177  RH  055%=      5-min Rain = 0
KHA1 160630Z 17009KT 28/18 A2994 RMK A01 T02820177  RH  055%=      5-min Rain = 0
KHA1 160635Z 17010G16KT 28/18 A2993 RMK A01 T02830177  RH  055%=      5-min Rain = 0
KHA1 160640Z 17010KT 28/18 A2993 RMK A01 T02830177  RH  056%=      5-min Rain = 0
KHA1 160645Z 17009G16KT 28/18 A2993 RMK A01 T02830177  RH  055%=      5-min Rain = 0
KHA1 160650Z 17008KT 28/18 A2994 RMK A01 T02840177  RH  055%=      5-min Rain = 0
KHA1 160655Z 16008KT 28/18 A2994 RMK A01 T02830177  RH  055%=      5-min Rain = 0
KHA1 160700Z 16007G12KT 28/18 A2994 RMK A01 T02830178  RH  056%=      5-min Rain = 0
KHA1 160705Z 17007KT 28/18 A2994 RMK A01 T02820178  RH  056%=      5-min Rain = 0
KHA1 160710Z 17008KT 28/18 A2995 RMK A01 T02820177  RH  056%=      5-min Rain = 0
KHA1 160715Z 17008KT 28/18 A2994 RMK A01 T02820177  RH  056%=      5-min Rain = 0
KHA1 160720Z 17008KT 28/18 A2994 RMK A01 T02810178  RH  056%=      5-min Rain = 0
KHA1 160725Z 17009KT 28/18 A2994 RMK A01 T02800177  RH  056%=      5-min Rain = 0
KHA1 160730Z 17008KT 28/18 A2993 RMK A01 T02800177  RH  057%=      5-min Rain = 0
KHA1 160735Z 17008KT 28/18 A2993 RMK A01 T02790177  RH  057%=      5-min Rain = 0
KHA1 160740Z 17008KT 28/18 A2993 RMK A01 T02790177  RH  057%=      5-min Rain = 0
KHA1 160745Z 16007KT 28/18 A2993 RMK A01 T02780177  RH  057%=      5-min Rain = 0
KHA1 160750Z 17007KT 28/18 A2993 RMK A01 T02780176  RH  057%=      5-min Rain = 0
KHA1 160755Z 17006KT 28/18 A2993 RMK A01 T02760176  RH  057%=      5-min Rain = 0
KHA1 160800Z 17007KT 28/18 A2993 RMK A01 T02770175  RH  057%=      5-min Rain = 0
KHA1 160805Z 17007KT 28/18 A2993 RMK A01 T02760175  RH  057%=      5-min Rain = 0
KHA1 160810Z 17008KT 28/18 A2993 RMK A01 T02750175  RH  057%=      5-min Rain = 0
KHA1 160815Z 16008KT 28/18 A2993 RMK A01 T02750175  RH  057%=      5-min Rain = 0
KHA1 160820Z 16008KT 28/18 A2993 RMK A01 T02750175  RH  057%=      5-min Rain = 0
KHA1 160825Z 16009KT 28/18 A2992 RMK A01 T02760175  RH  057%=      5-min Rain = 0
KHA1 160830Z 16008G14KT 28/18 A2992 RMK A01 T02750175  RH  057%=      5-min Rain = 0
KHA1 160835Z 17008G13KT 27/18 A2992 RMK A01 T02740175  RH  058%=      5-min Rain = 0
KHA1 160840Z 17008KT 28/18 A2992 RMK A01 T02750175  RH  057%=      5-min Rain = 0
KHA1 160845Z 17008G13KT 27/18 A2992 RMK A01 T02740175  RH  058%=      5-min Rain = 0
KHA1 160850Z 17008G14KT 28/18 A2992 RMK A01 T02750175  RH  057%=      5-min Rain = 0
KHA1 160855Z 17008G14KT 28/18 A2992 RMK A01 T02750175  RH  057%=      5-min Rain = 0
KHA1 160900Z 16007G12KT 28/18 A2993 RMK A01 T02750176  RH  057%=      5-min Rain = 0
KHA1 160905Z 17008KT 28/18 A2993 RMK A01 T02750175  RH  057%=      5-min Rain = 0
KHA1 160910Z 17007KT 28/18 A2993 RMK A01 T02760175  RH  057%=      5-min Rain = 0
KHA1 160915Z 17007KT 28/18 A2993 RMK A01 T02760176  RH  057%=      5-min Rain = 0
KHA1 160920Z 17006KT 27/18 A2993 RMK A01 T02740176  RH  058%=      5-min Rain = 0
KHA1 160925Z 17007KT 27/18 A2993 RMK A01 T02740176  RH  058%=      5-min Rain = 0
KHA1 160930Z 17006KT 27/18 A2993 RMK A01 T02740176  RH  058%=      5-min Rain = 0
KHA1 160935Z 16007KT 27/18 A2993 RMK A01 T02740176  RH  058%=      5-min Rain = 0
KHA1 160940Z 17007KT 27/18 A2993 RMK A01 T02730176  RH  058%=      5-min Rain = 0
KHA1 160945Z 17007KT 27/18 A2993 RMK A01 T02730175  RH  058%=      5-min Rain = 0
KHA1 160950Z 17006KT 27/18 A2993 RMK A01 T02730175  RH  058%=      5-min Rain = 0
KHA1 160955Z 17007KT 27/18 A2993 RMK A01 T02730175  RH  058%=      5-min Rain = 0
KHA1 161000Z 17006G11KT 27/18 A2993 RMK A01 T02720175  RH  058%=      5-min Rain = 0
KHA1 161005Z 16007KT 27/18 A2993 RMK A01 T02710175  RH  059%=      5-min Rain = 0
KHA1 161010Z 17007KT 27/18 A2993 RMK A01 T02700176  RH  059%=      5-min Rain = 0
KHA1 161015Z 17007KT 27/18 A2993 RMK A01 T02700175  RH  059%=      5-min Rain = 0
KHA1 161020Z 17007KT 27/18 A2993 RMK A01 T02700175  RH  059%=      5-min Rain = 0
KHA1 161025Z 17006KT 27/18 A2993 RMK A01 T02690175  RH  059%=      5-min Rain = 0
KHA1 161030Z 17006KT 27/18 A2993 RMK A01 T02680175  RH  060%=      5-min Rain = 0
KHA1 161035Z 17005KT 27/18 A2993 RMK A01 T02670175  RH  060%=      5-min Rain = 0
KHA1 161040Z 17005KT 27/18 A2993 RMK A01 T02670175  RH  060%=      5-min Rain = 0
KHA1 161045Z 17004KT 27/17 A2993 RMK A01 T02670174  RH  060%=      5-min Rain = 0
KHA1 161050Z 17004KT 27/18 A2993 RMK A01 T02650175  RH  061%=      5-min Rain = 0
KHA1 161055Z 16004KT 26/18 A2994 RMK A01 T02640176  RH  061%=      5-min Rain = 0
KHA1 161100Z 16005KT 26/18 A2994 RMK A01 T02640176  RH  061%=      5-min Rain = 0
KHA1 161105Z 16005KT 26/18 A2994 RMK A01 T02630176  RH  062%=      5-min Rain = 0
KHA1 161110Z 16005KT 26/18 A2994 RMK A01 T02620176  RH  062%=      5-min Rain = 0
KHA1 161115Z 16006KT 26/18 A2994 RMK A01 T02610176  RH  063%=      5-min Rain = 0
KHA1 161120Z 16006KT 26/18 A2994 RMK A01 T02620176  RH  062%=      5-min Rain = 0
KHA1 161125Z 16005KT 26/18 A2994 RMK A01 T02620176  RH  062%=      5-min Rain = 0
KHA1 161130Z 16005KT 26/18 A2994 RMK A01 T02610176  RH  063%=      5-min Rain = 0
KHA1 161135Z 17004KT 26/18 A2994 RMK A01 T02610176  RH  063%=      5-min Rain = 0
KHA1 161140Z 17004KT 26/18 A2994 RMK A01 T02610176  RH  063%=      5-min Rain = 0
KHA1 161145Z 16005KT 26/18 A2994 RMK A01 T02600177  RH  063%=      5-min Rain = 0
KHA1 161150Z 16005KT 26/18 A2994 RMK A01 T02600177  RH  063%=      5-min Rain = 0
KHA1 161155Z 16005KT 26/18 A2994 RMK A01 T02600177  RH  063%=      5-min Rain = 0
KHA1 161200Z 16004KT 26/18 A2995 RMK A01 T02600177  RH  064%=      5-min Rain = 0
KHA1 161205Z 17003KT 26/18 A2995 RMK A01 T02600177  RH  063%=      5-min Rain = 0
KHA1 161210Z 17004KT 26/18 A2995 RMK A01 T02600177  RH  063%=      5-min Rain = 0
KHA1 161215Z 17004KT 26/18 A2995 RMK A01 T02590178  RH  064%=      5-min Rain = 0
KHA1 161220Z 16006KT 26/18 A2995 RMK A01 T02590179  RH  064%=      5-min Rain = 0
KHA1 161225Z 16006KT 26/18 A2995 RMK A01 T02590178  RH  064%=      5-min Rain = 0
KHA1 161230Z 15006KT 26/18 A2995 RMK A01 T02590179  RH  065%=      5-min Rain = 0
KHA1 161235Z 15006KT 26/18 A2995 RMK A01 T02590179  RH  064%=      5-min Rain = 0
KHA1 161240Z 15006KT 26/18 A2995 RMK A01 T02600179  RH  064%=      5-min Rain = 0
KHA1 161245Z 16006KT 26/18 A2995 RMK A01 T02610180  RH  064%=      5-min Rain = 0
KHA1 161250Z 16006KT 26/18 A2995 RMK A01 T02610181  RH  065%=      5-min Rain = 0
KHA1 161255Z 16006KT 26/18 A2995 RMK A01 T02620181  RH  064%=      5-min Rain = 0
KHA1 161300Z 16005KT 26/18 A2995 RMK A01 T02630182  RH  065%=      5-min Rain = 0
KHA1 161305Z 16006KT 27/18 A2995 RMK A01 T02650184  RH  064%=      5-min Rain = 0
KHA1 161310Z 16006KT 27/19 A2995 RMK A01 T02680185  RH  064%=      5-min Rain = 0
KHA1 161315Z 16007KT 27/19 A2996 RMK A01 T02700185  RH  063%=      5-min Rain = 0
KHA1 161320Z 17007G12KT 27/19 A2996 RMK A01 T02730185  RH  062%=      5-min Rain = 0
KHA1 161325Z 17007KT 28/19 A2996 RMK A01 T02750186  RH  062%=      5-min Rain = 0
KHA1 161330Z 17007KT 28/19 A2996 RMK A01 T02770187  RH  061%=      5-min Rain = 0
KHA1 161335Z 18007KT 28/19 A2996 RMK A01 T02790187  RH  060%=      5-min Rain = 0
KHA1 161340Z 18008G14KT 28/19 A2996 RMK A01 T02820187  RH  059%=      5-min Rain = 0
KHA1 161345Z 18009KT 28/19 A2996 RMK A01 T02830187  RH  059%=      5-min Rain = 0
KHA1 161350Z 18010KT 28/19 A2997 RMK A01 T02840187  RH  059%=      5-min Rain = 0
KHA1 161355Z 18007KT 29/19 A2997 RMK A01 T02880188  RH  058%=      5-min Rain = 0
KHA1 161400Z 18010KT 29/19 A2996 RMK A01 T02890187  RH  057%=      5-min Rain = 0
KHA1 161405Z 18009KT 29/19 A2996 RMK A01 T02910187  RH  056%=      5-min Rain = 0
KHA1 161410Z 19010KT 29/19 A2996 RMK A01 T02930187  RH  056%=      5-min Rain = 0
KHA1 161415Z 19009KT 30/19 A2996 RMK A01 T02980188  RH  055%=      5-min Rain = 0
KHA1 161420Z 19012KT 30/19 A2996 RMK A01 T02990187  RH  054%=      5-min Rain = 0
KHA1 161425Z 20011KT 30/19 A2996 RMK A01 T03030188  RH  053%=      5-min Rain = 0
KHA1 161430Z 20011G16KT 31/19 A2996 RMK A01 T03050188  RH  052%=      5-min Rain = 0
KHA1 161435Z 20012KT 31/19 A2996 RMK A01 T03080189  RH  052%=      5-min Rain = 0
KHA1 161440Z 20014KT 31/19 A2996 RMK A01 T03110189  RH  051%=      5-min Rain = 0
KHA1 161445Z 20014KT 31/19 A2996 RMK A01 T03120189  RH  051%=      5-min Rain = 0
KHA1 161450Z 20015KT 31/19 A2996 RMK A01 T03130189  RH  051%=      5-min Rain = 0
KHA1 161455Z 20014KT 32/19 A2996 RMK A01 T03160189  RH  050%=      5-min Rain = 0
KHA1 161500Z 20013G18KT 32/19 A2996 RMK A01 T03180189  RH  049%=      5-min Rain = 0
KHA1 161505Z 20014KT 32/19 A2996 RMK A01 T03190188  RH  048%=      5-min Rain = 0
KHA1 161510Z 20013KT 32/19 A2996 RMK A01 T03220188  RH  048%=      5-min Rain = 0
KHA1 161515Z 20012G17KT 33/19 A2996 RMK A01 T03250187  RH  046%=      5-min Rain = 0
KHA1 161520Z 20013KT 33/19 A2996 RMK A01 T03250186  RH  046%=      5-min Rain = 0
KHA1 161525Z 21012G18KT 33/19 A2996 RMK A01 T03270185  RH  045%=      5-min Rain = 0
KHA1 161530Z 20014G20KT 33/18 A2996 RMK A01 T03280184  RH  045%=      5-min Rain = 0
KHA1 161535Z 19014KT 33/18 A2996 RMK A01 T03300184  RH  044%=      5-min Rain = 0
KHA1 161540Z 20012G17KT 33/19 A2996 RMK A01 T03330186  RH  044%=      5-min Rain = 0
KHA1 161545Z 20012G17KT 33/18 A2996 RMK A01 T03330184  RH  044%=      5-min Rain = 0
KHA1 161550Z 21012G18KT 33/18 A2996 RMK A01 T03340184  RH  044%=      5-min Rain = 0
KHA1 161555Z 20013G20KT 34/18 A2996 RMK A01 T03360183  RH  043%=      5-min Rain = 0
KHA1 161600Z 21013G19KT 34/18 A2996 RMK A01 T03370183  RH  042%=      5-min Rain = 0
KHA1 161605Z 21014KT 34/18 A2996 RMK A01 T03390183  RH  042%=      5-min Rain = 0
KHA1 161610Z 22013G18KT 34/18 A2996 RMK A01 T03390184  RH  042%=      5-min Rain = 0
KHA1 161615Z 22014G19KT 34/18 A2996 RMK A01 T03400183  RH  042%=      5-min Rain = 0
KHA1 161620Z 21012G17KT 35/19 A2995 RMK A01 T03450186  RH  041%=      5-min Rain = 0
KHA1 161625Z 22013KT 34/18 A2995 RMK A01 T03440184  RH  041%=      5-min Rain = 0
KHA1 161630Z 21013G18KT 35/18 A2995 RMK A01 T03480184  RH  040%=      5-min Rain = 0
KHA1 161635Z 22012G18KT 35/19 A2995 RMK A01 T03500185  RH  040%=      5-min Rain = 0
KHA1 161640Z 21013G18KT 35/18 A2995 RMK A01 T03510184  RH  039%=      5-min Rain = 0
KHA1 161645Z 20012KT 35/19 A2995 RMK A01 T03530185  RH  039%=      5-min Rain = 0
KHA1 161650Z 21011KT 36/19 A2995 RMK A01 T03550185  RH  039%=      5-min Rain = 0
KHA1 161655Z 21013G19KT 35/18 A2995 RMK A01 T03540182  RH  038%=      5-min Rain = 0
KHA1 161700Z 21013G18KT 35/18 A2995 RMK A01 T03540182  RH  038%=      5-min Rain = 0
KHA1 161705Z 23011G16KT 36/18 A2994 RMK A01 T03590183  RH  038%=      5-min Rain = 0
KHA1 161710Z 21012G17KT 36/18 A2994 RMK A01 T03600181  RH  037%=      5-min Rain = 0
KHA1 161715Z 20013G19KT 36/18 A2994 RMK A01 T03620178  RH  036%=      5-min Rain = 0
KHA1 161720Z 20010G15KT 37/18 A2994 RMK A01 T03660181  RH  036%=      5-min Rain = 0
KHA1 161725Z 20012G18KT 36/18 A2994 RMK A01 T03640178  RH  035%=      5-min Rain = 0
KHA1 161730Z 21012G17KT 37/18 A2994 RMK A01 T03650179  RH  035%=      5-min Rain = 0
KHA1 161735Z 21013G18KT 37/18 A2994 RMK A01 T03660180  RH  035%=      5-min Rain = 0
KHA1 161740Z 21010G16KT 37/18 A2993 RMK A01 T03660180  RH  035%=      5-min Rain = 0
KHA1 161745Z 21011G16KT 37/18 A2993 RMK A01 T03720177  RH  034%=      5-min Rain = 0
KHA1 161750Z 21009KT 37/18 A2993 RMK A01 T03690177  RH  034%=      5-min Rain = 0
KHA1 161755Z 20011G16KT 37/18 A2993 RMK A01 T03690176  RH  034%=      5-min Rain = 0
KHA1 161800Z 20011G16KT 37/17 A2992 RMK A01 T03700174  RH  033%=      5-min Rain = 0
KHA1 161805Z 20008G13KT 37/17 A2992 RMK A01 T03740172  RH  032%=      5-min Rain = 0
KHA1 161810Z 21009KT 37/17 A2992 RMK A01 T03720171  RH  032%=      5-min Rain = 0
KHA1 161815Z 20010KT 38/17 A2992 RMK A01 T03750171  RH  032%=      5-min Rain = 0
KHA1 161820Z 21008G15KT 38/17 A2991 RMK A01 T03780173  RH  032%=      5-min Rain = 0
KHA1 161825Z 20009G14KT 38/17 A2991 RMK A01 T03790173  RH  032%=      5-min Rain = 0
KHA1 161830Z 23008G15KT 38/17 A2991 RMK A01 T03760172  RH  032%=      5-min Rain = 0
KHA1 161835Z 22009G15KT 38/17 A2991 RMK A01 T03830174  RH  031%=      5-min Rain = 0
KHA1 161840Z 22007G12KT 38/17 A2991 RMK A01 T03830170  RH  030%=      5-min Rain = 0
KHA1 161845Z 18007G12KT 38/17 A299 RMK A01 T03780173  RH  032%=      5-min Rain = 0
KHA1 161850Z 18011G16KT 38/17 A299 RMK A01 T03820168  RH  030%=      5-min Rain = 0
KHA1 161855Z 17008G13KT 38/17 A299 RMK A01 T03750167  RH  031%=      5-min Rain = 0
KHA1 161900Z 15005KT 37/17 A299 RMK A01 T03710173  RH  033%=      5-min Rain = 0
KHA1 161905Z 17005G10KT 37/18 A299 RMK A01 T03730177  RH  033%=      5-min Rain = 0
KHA1 161910Z 17011KT 38/17 A2989 RMK A01 T03780174  RH  032%=      5-min Rain = 0
KHA1 161915Z 17008G13KT 38/17 A2989 RMK A01 T03790169  RH  031%=      5-min Rain = 0
KHA1 161920Z 15008KT 37/17 A2989 RMK A01 T03730174  RH  033%=      5-min Rain = 0
KHA1 161925Z 17007G15KT 38/17 A2989 RMK A01 T03760165  RH  030%=      5-min Rain = 0
KHA1 161930Z 15006KT 38/17 A2989 RMK A01 T03760173  RH  032%=      5-min Rain = 0
KHA1 161935Z 17009KT 38/17 A2989 RMK A01 T03770174  RH  032%=      5-min Rain = 0
KHA1 161940Z 15007KT 38/17 A2989 RMK A01 T03760170  RH  031%=      5-min Rain = 0
KHA1 161945Z 17009G14KT 38/17 A2988 RMK A01 T03770170  RH  031%=      5-min Rain = 0
KHA1 161950Z 16009KT 38/17 A2988 RMK A01 T03760168  RH  031%=      5-min Rain = 0
KHA1 161955Z 21007KT 38/16 A2988 RMK A01 T03840162  RH  028%=      5-min Rain = 0
KHA1 162000Z 20009G14KT 39/16 A2988 RMK A01 T03930162  RH  027%=      5-min Rain = 0
KHA1 162005Z 17005G11KT 39/17 A2988 RMK A01 T03850168  RH  030%=      5-min Rain = 0
KHA1 162010Z 14008G15KT 38/18 A2987 RMK A01 T03820175  RH  031%=      5-min Rain = 0
KHA1 162015Z 15006KT 38/17 A2987 RMK A01 T03830172  RH  031%=      5-min Rain = 0
KHA1 162020Z 18010G15KT 39/17 A2986 RMK A01 T03890167  RH  029%=      5-min Rain = 0
KHA1 162025Z 15008KT 38/17 A2986 RMK A01 T03770172  RH  031%=      5-min Rain = 0
KHA1 162030Z 14008G14KT 37/17 A2986 RMK A01 T03720171  RH  032%=      5-min Rain = 0
KHA1 162035Z 16011G17KT 38/17 A2986 RMK A01 T03790169  RH  031%=      5-min Rain = 0
KHA1 162040Z 16010G16KT 38/17 A2986 RMK A01 T03770167  RH  031%=      5-min Rain = 0
KHA1 162045Z 13006KT 38/16 A2986 RMK A01 T03770157  RH  029%=      5-min Rain = 0
KHA1 162050Z 16011G17KT 39/16 A2985 RMK A01 T03850160  RH  028%=      5-min Rain = 0
KHA1 162055Z 18008KT 40/16 A2985 RMK A01 T03950158  RH  026%=      5-min Rain = 0
KHA1 162100Z 16007KT 38/16 A2985 RMK A01 T03830163  RH  029%=      5-min Rain = 0
KHA1 162105Z 18007G12KT 38/16 A2985 RMK A01 T03790156  RH  028%=      5-min Rain = 0
KHA1 162110Z 19010KT 38/15 A2984 RMK A01 T03780149  RH  027%=      5-min Rain = 0
KHA1 162115Z 18006KT 39/15 A2984 RMK A01 T03900149  RH  025%=      5-min Rain = 0
KHA1 162120Z 17010G17KT 39/15 A2984 RMK A01 T03890153  RH  026%=      5-min Rain = 0
KHA1 162125Z 15007G16KT 38/16 A2983 RMK A01 T03830157  RH  028%=      5-min Rain = 0
KHA1 162130Z 14009G15KT 38/16 A2983 RMK A01 T03820157  RH  028%=      5-min Rain = 0
KHA1 162135Z 15008G13KT 38/15 A2983 RMK A01 T03790154  RH  028%=      5-min Rain = 0
KHA1 162140Z 15009KT 38/15 A2983 RMK A01 T03810149  RH  027%=      5-min Rain = 0
KHA1 162145Z 15008G16KT 38/14 A2983 RMK A01 T03830142  RH  025%=      5-min Rain = 0
KHA1 162150Z 16012G17KT 39/14 A2982 RMK A01 T03880135  RH  023%=      5-min Rain = 0
KHA1 162155Z 16010KT 38/14 A2982 RMK A01 T03820139  RH  025%=      5-min Rain = 0
KHA1 162200Z 16010KT 38/14 A2982 RMK A01 T03810140  RH  025%=      5-min Rain = 0
KHA1 162205Z 17010KT 39/13 A2982 RMK A01 T03850133  RH  023%=      5-min Rain = 0
KHA1 162210Z 19010G15KT 39/14 A2982 RMK A01 T03860138  RH  024%=      5-min Rain = 0
KHA1 162215Z 17010G15KT 39/14 A2982 RMK A01 T03940136  RH  023%=      5-min Rain = 0
KHA1 162220Z 17010G15KT 39/13 A2982 RMK A01 T03870134  RH  023%=      5-min Rain = 0
KHA1 162225Z 15009G15KT 39/13 A2981 RMK A01 T03850132  RH  023%=      5-min Rain = 0
KHA1 162230Z 14009KT 38/13 A2981 RMK A01 T03810127  RH  023%=      5-min Rain = 0
KHA1 162235Z 15007KT 38/12 A2981 RMK A01 T03830124  RH  022%=      5-min Rain = 0
KHA1 162240Z 14008G13KT 38/13 A2981 RMK A01 T03840132  RH  023%=      5-min Rain = 0
KHA1 162245Z 16008KT 38/14 A2981 RMK A01 T03840137  RH  024%=      5-min Rain = 0
KHA1 162250Z 15008G14KT 38/14 A2981 RMK A01 T03820142  RH  025%=      5-min Rain = 0
KHA1 162255Z 16009KT 38/14 A2981 RMK A01 T03830135  RH  024%=      5-min Rain = 0
KHA1 162300Z 16008KT 38/13 A2981 RMK A01 T03840131  RH  023%=      5-min Rain = 0
KHA1 162305Z 15010G16KT 38/12 A2981 RMK A01 T03840121  RH  022%=      5-min Rain = 0
KHA1 162310Z 15009KT 38/12 A2981 RMK A01 T03810124  RH  022%=      5-min Rain = 0
KHA1 162315Z 16009G15KT 38/13 A2981 RMK A01 T03790126  RH  023%=      5-min Rain = 0
KHA1 162320Z 17006KT 37/12 A2981 RMK A01 T03740124  RH  023%=      5-min Rain = 0
KHA1 162325Z 16007KT 38/12 A2981 RMK A01 T03780122  RH  023%=      5-min Rain = 0
KHA1 162330Z 15009KT 38/13 A2981 RMK A01 T03760125  RH  023%=      5-min Rain = 0
KHA1 162335Z 15008KT 37/14 A2981 RMK A01 T03710136  RH  026%=      5-min Rain = 0
KHA1 162340Z 15007KT 37/13 A2981 RMK A01 T03670133  RH  026%=      5-min Rain = 0
KHA1 162345Z 15008KT 37/14 A2981 RMK A01 T03660137  RH  027%=      5-min Rain = 0
KHA1 162350Z 16008G13KT 37/14 A2981 RMK A01 T03660136  RH  026%=      5-min Rain = 0
KHA1 162355Z 16006KT 37/14 A2981 RMK A01 T03670137  RH  026%=      5-min Rain = 0
KHA1 170000Z 14007G13KT 36/14 A2981 RMK A01 T03620137  RH  027%=      5-min Rain = 0
KHA1 170005Z 14009KT 36/13 A298 RMK A01 T03640132  RH  026%=      5-min Rain = 0
KHA1 170010Z 15008KT 36/14 A298 RMK A01 T03620135  RH  027%=      5-min Rain = 0
KHA1 170015Z 16007G13KT 36/14 A298 RMK A01 T03620136  RH  027%=      5-min Rain = 0
KHA1 170020Z 16008G15KT 36/14 A298 RMK A01 T03610136  RH  027%=      5-min Rain = 0
KHA1 170025Z 16009KT 36/13 A2979 RMK A01 T03610133  RH  026%=      5-min Rain = 0
KHA1 170030Z 16010G15KT 36/13 A2979 RMK A01 T03620130  RH  026%=      5-min Rain = 0
KHA1 170035Z 16009KT 36/13 A2979 RMK A01 T03600132  RH  027%=      5-min Rain = 0
KHA1 170040Z 16010G15KT 36/13 A2979 RMK A01 T03580129  RH  026%=      5-min Rain = 0
KHA1 170045Z 15010G16KT 36/13 A2979 RMK A01 T03580127  RH  026%=      5-min Rain = 0
KHA1 170050Z 15008KT 36/12 A2979 RMK A01 T03560124  RH  026%=      5-min Rain = 0
KHA1 170055Z 15008KT 35/13 A2979 RMK A01 T03530127  RH  027%=      5-min Rain = 0
KHA1 170100Z 14008KT 35/12 A2979 RMK A01 T03540124  RH  026%=      5-min Rain = 0
KHA1 170105Z 14008KT 35/13 A298 RMK A01 T03530127  RH  027%=      5-min Rain = 0
KHA1 170110Z 14008KT 35/13 A298 RMK A01 T03510130  RH  028%=      5-min Rain = 0
KHA1 170115Z 14008G14KT 35/13 A298 RMK A01 T03510130  RH  027%=      5-min Rain = 0
KHA1 170120Z 13008KT 35/13 A298 RMK A01 T03500131  RH  028%=      5-min Rain = 0
KHA1 170125Z 14007G12KT 35/14 A298 RMK A01 T03470135  RH  029%=      5-min Rain = 0
KHA1 170130Z 14006KT 34/14 A298 RMK A01 T03430135  RH  030%=      5-min Rain = 0
KHA1 170135Z 14007KT 34/14 A2981 RMK A01 T03430135  RH  030%=      5-min Rain = 0
KHA1 170140Z 14007G12KT 34/14 A2981 RMK A01 T03420137  RH  030%=      5-min Rain = 0
KHA1 170145Z 14008KT 34/14 A2981 RMK A01 T03420135  RH  030%=      5-min Rain = 0
KHA1 170150Z 14007KT 35/13 A2981 RMK A01 T03450134  RH  029%=      5-min Rain = 0
KHA1 170155Z 14007KT 34/13 A2981 RMK A01 T03440133  RH  029%=      5-min Rain = 0
KHA1 170200Z 14008KT 34/13 A2981 RMK A01 T03440132  RH  029%=      5-min Rain = 0
KHA1 170205Z 14008KT 34/13 A2981 RMK A01 T03430133  RH  029%=      5-min Rain = 0
KHA1 170210Z 14008G13KT 34/13 A2981 RMK A01 T03420131  RH  029%=      5-min Rain = 0
KHA1 170215Z 14008G13KT 34/13 A2981 RMK A01 T03420129  RH  029%=      5-min Rain = 0
KHA1 170220Z 14009G14KT 34/13 A2981 RMK A01 T03410129  RH  029%=      5-min Rain = 0
KHA1 170225Z 14009KT 34/13 A2981 RMK A01 T03390129  RH  029%=      5-min Rain = 0
KHA1 170230Z 13009KT 34/13 A2981 RMK A01 T03380128  RH  029%=      5-min Rain = 0
KHA1 170235Z 13008KT 34/13 A2982 RMK A01 T03360128  RH  030%=      5-min Rain = 0
KHA1 170240Z 13009KT 34/13 A2982 RMK A01 T03350129  RH  030%=      5-min Rain = 0
KHA1 170245Z 13008KT 33/13 A2982 RMK A01 T03330131  RH  031%=      5-min Rain = 0
KHA1 170250Z 13008KT 33/13 A2983 RMK A01 T03320133  RH  031%=      5-min Rain = 0
KHA1 170255Z 13009KT 33/14 A2983 RMK A01 T03300138  RH  033%=      5-min Rain = 0
KHA1 170300Z 13010KT 33/14 A2983 RMK A01 T03310143  RH  034%=      5-min Rain = 0
KHA1 170305Z 14009KT 33/15 A2983 RMK A01 T03290146  RH  035%=      5-min Rain = 0
KHA1 170310Z 14009G15KT 33/15 A2983 RMK A01 T03290149  RH  035%=      5-min Rain = 0
KHA1 170315Z 14010G16KT 33/15 A2984 RMK A01 T03300152  RH  036%=      5-min Rain = 0
KHA1 170320Z 14009G14KT 33/16 A2984 RMK A01 T03290155  RH  037%=      5-min Rain = 0
KHA1 170325Z 14011G17KT 33/16 A2984 RMK A01 T03300156  RH  037%=      5-min Rain = 0
KHA1 170330Z 15010G17KT 33/16 A2984 RMK A01 T03290158  RH  038%=      5-min Rain = 0
KHA1 170335Z 15010G16KT 33/16 A2984 RMK A01 T03280160  RH  038%=      5-min Rain = 0
KHA1 170340Z 15012KT 33/16 A2984 RMK A01 T03290161  RH  038%=      5-min Rain = 0
KHA1 170345Z 15012G17KT 33/16 A2984 RMK A01 T03270162  RH  039%=      5-min Rain = 0
KHA1 170350Z 15011G17KT 33/16 A2984 RMK A01 T03270163  RH  039%=      5-min Rain = 0
KHA1 170355Z 14010G15KT 33/16 A2985 RMK A01 T03260164  RH  040%=      5-min Rain = 0
KHA1 170400Z 15009G16KT 32/17 A2985 RMK A01 T03220166  RH  041%=      5-min Rain = 0
KHA1 170405Z 15011G16KT 32/17 A2985 RMK A01 T03230166  RH  041%=      5-min Rain = 0
KHA1 170410Z 15010G15KT 32/17 A2984 RMK A01 T03220167  RH  041%=      5-min Rain = 0
KHA1 170415Z 15012G17KT 32/17 A2984 RMK A01 T03220168  RH  042%=      5-min Rain = 0
KHA1 170420Z 15012G17KT 32/17 A2984 RMK A01 T03220170  RH  042%=      5-min Rain = 0
KHA1 170425Z 15012G17KT 32/17 A2984 RMK A01 T03220171  RH  043%=      5-min Rain = 0
KHA1 170430Z 15014G23KT 32/17 A2985 RMK A01 T03220172  RH  043%=      5-min Rain = 0
KHA1 170435Z 16010G15KT 32/17 A2985 RMK A01 T03210172  RH  043%=      5-min Rain = 0
KHA1 170440Z 16011G17KT 32/17 A2986 RMK A01 T03200173  RH  044%=      5-min Rain = 0
KHA1 170445Z 16010G15KT 32/17 A2986 RMK A01 T03190173  RH  044%=      5-min Rain = 0
KHA1 170450Z 16011G16KT 32/17 A2986 RMK A01 T03190174  RH  044%=      5-min Rain = 0
KHA1 170455Z 16010G17KT 32/18 A2986 RMK A01 T03170175  RH  045%=      5-min Rain = 0

Page generated in 0.0091 seconds.